Time;durP1;ratioP1;P1;durP2;ratioP2;P2;SDS_P1;SDS_P2;PMS_P1;PMS_P2;Temp;Humidity;BMP_temperature;BMP_pressure;BME280_temperature;BME280_humidity;BME280_pressure;Samples;Min_cycle;Max_cycle;Signal;HPM_P1;HPM_P2
2022/09/01 00:01:49;;;;;;;4.05;1.27;;;;;;;20.04;41.95;102006.53;4953971;28;114061;-76
2022/09/01 00:04:20;;;;;;;3.55;1.27;;;;;;;20.02;42.08;102001.28;4948669;28;113634;-78
2022/09/01 00:06:47;;;;;;;3.47;1.27;;;;;;;19.99;42.10;101996.09;4949457;28;124153;-77
2022/09/01 00:09:18;;;;;;;5.38;1.30;;;;;;;19.96;42.29;101998.97;4942278;28;123602;-76
2022/09/01 00:11:50;;;;;;;2.10;1.08;;;;;;;19.94;42.51;101987.47;4950004;28;114128;-76
2022/09/01 00:14:24;;;;;;;4.57;1.58;;;;;;;19.93;42.59;101999.19;4933788;28;113537;-76
2022/09/01 00:16:59;;;;;;;4.80;1.50;;;;;;;19.90;42.70;102002.09;4949041;28;124380;-75
2022/09/01 00:19:27;;;;;;;2.95;1.27;;;;;;;19.90;42.66;101994.00;4943768;28;124695;-76
2022/09/01 00:21:56;;;;;;;2.75;1.20;;;;;;;19.87;42.99;101999.59;4944019;28;113477;-76
2022/09/01 00:24:24;;;;;;;2.92;1.48;;;;;;;19.85;43.18;101996.13;4946591;28;113989;-76
2022/09/01 00:26:53;;;;;;;3.35;1.30;;;;;;;19.83;43.13;102003.44;4948634;28;124128;-74
2022/09/01 00:29:21;;;;;;;4.07;1.20;;;;;;;19.82;43.28;101996.34;4941144;28;123074;-78
2022/09/01 00:31:50;;;;;;;1.40;1.10;;;;;;;19.78;43.23;102001.06;4949042;28;113237;-75
2022/09/01 00:34:17;;;;;;;2.33;1.35;;;;;;;19.74;43.34;101998.66;4951286;28;113714;-76
2022/09/01 00:36:45;;;;;;;3.28;1.30;;;;;;;19.71;43.29;101998.84;4944553;28;124246;-76
2022/09/01 00:39:13;;;;;;;3.75;1.38;;;;;;;19.68;43.44;102004.41;4945102;28;123700;-77
2022/09/01 00:41:42;;;;;;;4.45;1.30;;;;;;;19.62;43.70;102006.53;4947596;28;114217;-76
2022/09/01 00:44:14;;;;;;;3.67;1.38;;;;;;;19.61;43.76;101998.59;4919258;28;112915;-77
2022/09/01 00:46:44;;;;;;;3.72;1.20;;;;;;;19.59;43.81;101998.69;4948215;28;121844;-76
2022/09/01 00:49:22;;;;;;;1.58;1.17;;;;;;;19.59;43.94;101996.00;4929882;28;124320;-78
2022/09/01 00:51:53;;;;;;;1.95;1.30;;;;;;;19.57;44.02;101991.66;4942194;28;113533;-78
2022/09/01 00:54:24;;;;;;;2.72;1.20;;;;;;;19.56;43.92;101990.81;4950475;28;114468;-76
2022/09/01 00:56:54;;;;;;;1.95;1.17;;;;;;;19.55;43.90;101991.78;4932322;28;123704;-76
2022/09/01 00:59:25;;;;;;;3.75;1.30;;;;;;;19.55;44.05;101991.78;4948539;28;123971;-75
2022/09/01 01:01:55;;;;;;;4.47;1.40;;;;;;;19.54;44.20;101992.75;4961797;28;115441;-77
2022/09/01 01:04:23;;;;;;;2.47;1.40;;;;;;;19.52;44.28;101981.22;4956513;28;114625;-76
2022/09/01 01:07:00;;;;;;;3.10;1.40;;;;;;;19.49;44.32;101984.09;4970438;28;123849;-75
2022/09/01 01:09:42;;;;;;;2.25;1.35;;;;;;;19.45;44.32;101979.91;4970072;28;123200;-76
2022/09/01 01:12:12;;;;;;;3.88;1.50;;;;;;;19.42;44.39;101982.75;4970794;28;114585;-75
2022/09/01 01:14:40;;;;;;;2.08;1.30;;;;;;;19.39;44.29;101989.22;4968734;28;116134;-77
2022/09/01 01:17:11;;;;;;;1.80;1.30;;;;;;;19.37;44.35;101984.91;4938866;28;123772;-76
2022/09/01 01:25:52;;;;;;;3.47;1.40;;;;;;;19.30;44.56;101994.31;4948594;28;113607;-76
2022/09/01 01:28:35;;;;;;;4.53;1.73;;;;;;;19.28;44.67;101985.50;4931907;28;124288;-77
2022/09/01 01:31:12;;;;;;;1.92;1.15;;;;;;;19.28;44.66;101985.50;4950431;28;97181;-78
2022/09/01 01:33:46;;;;;;;4.43;1.73;;;;;;;19.26;44.76;101983.75;4947064;28;113902;-76
2022/09/01 01:36:16;;;;;;;2.15;1.50;;;;;;;19.26;44.69;101990.97;4948409;28;114046;-76
2022/09/01 01:38:47;;;;;;;3.63;1.40;;;;;;;19.26;44.70;101991.81;4947001;28;122620;-77
2022/09/01 01:41:18;;;;;;;2.78;1.75;;;;;;;19.24;44.76;101979.44;4944902;28;123999;-77
2022/09/01 01:43:47;;;;;;;1.60;1.30;;;;;;;19.23;44.95;101993.81;4917199;28;113908;-76
2022/09/01 01:46:17;;;;;;;1.67;1.27;;;;;;;19.21;44.81;101996.63;4935614;28;113839;-76
2022/09/01 01:48:45;;;;;;;4.35;1.40;;;;;;;19.21;44.84;101996.63;4938660;28;123876;-76
2022/09/01 01:51:18;;;;;;;2.88;1.60;;;;;;;19.19;44.79;101993.19;4920791;28;123601;-76
2022/09/01 01:53:51;;;;;;;3.75;1.60;;;;;;;19.16;44.89;101998.75;4948833;28;113920;-76
2022/09/01 01:56:21;;;;;;;1.70;1.33;;;;;;;19.12;44.91;102002.59;4952261;28;112420;-76
2022/09/01 01:58:55;;;;;;;4.10;1.70;;;;;;;19.08;44.88;101995.69;4935301;28;123378;-76
2022/09/01 02:01:27;;;;;;;3.47;1.70;;;;;;;19.04;44.96;101995.00;4934090;28;123200;-78
2022/09/01 02:03:56;;;;;;;4.88;1.80;;;;;;;19.00;45.16;101998.81;4935414;28;114542;-77
2022/09/01 02:06:27;;;;;;;2.97;1.60;;;;;;;18.99;45.25;101996.25;4935912;28;114486;-76
2022/09/01 02:08:57;;;;;;;3.03;1.40;;;;;;;18.98;45.30;102005.25;4933436;28;123363;-77
2022/09/01 02:11:25;;;;;;;4.88;1.60;;;;;;;18.98;45.23;101999.88;4938266;28;124132;-79
2022/09/01 02:13:55;;;;;;;4.72;1.98;;;;;;;18.96;45.50;101996.44;4931514;28;113797;-79
2022/09/01 02:16:26;;;;;;;5.28;1.60;;;;;;;18.94;45.46;101998.34;4950038;28;113866;-75
2022/09/01 02:18:55;;;;;;;3.90;1.73;;;;;;;18.93;45.63;102001.97;4935227;28;123586;-79
2022/09/01 02:21:24;;;;;;;1.90;1.55;;;;;;;18.90;45.68;101995.00;4939980;28;123741;-79
2022/09/01 02:24:00;;;;;;;2.65;1.52;;;;;;;18.90;45.71;102002.19;4948905;28;115058;-79
2022/09/01 02:26:37;;;;;;;2.38;1.70;;;;;;;18.86;45.79;101997.00;4936456;28;113541;-76
2022/09/01 02:29:16;;;;;;;3.58;1.90;;;;;;;18.82;45.75;101995.47;4935035;28;124220;-78
2022/09/01 02:31:46;;;;;;;3.72;1.50;;;;;;;18.80;45.85;101997.38;4946426;28;122079;-78
2022/09/01 02:34:14;;;;;;;4.05;1.85;;;;;;;18.76;45.95;101994.94;4946543;28;115049;-79
2022/09/01 02:36:46;;;;;;;3.92;1.65;;;;;;;18.71;45.97;101992.53;4947117;28;113661;-76
2022/09/01 02:39:19;;;;;;;3.10;1.50;;;;;;;18.67;46.06;101996.38;4944960;28;122528;-77
2022/09/01 02:41:46;;;;;;;3.42;1.50;;;;;;;18.65;46.01;101987.56;4919941;28;122105;-78
2022/09/01 02:44:14;;;;;;;2.97;1.60;;;;;;;18.63;46.21;101997.53;4932378;28;113036;-76
2022/09/01 02:46:43;;;;;;;2.40;1.45;;;;;;;18.59;46.27;101993.28;4917506;28;113009;-79
2022/09/01 02:49:18;;;;;;;2.67;1.70;;;;;;;18.55;46.44;101987.22;4937648;28;124854;-78
2022/09/01 02:51:47;;;;;;;;;;;;;;;18.49;45.81;101988.47;4930705;28;123486;-79
2022/09/01 02:54:17;;;;;;;3.13;1.63;;;;;;;18.48;46.25;101981.38;4946879;28;114959;-76
2022/09/01 02:56:46;;;;;;;4.35;1.70;;;;;;;18.45;46.28;101986.06;4939796;28;113816;-78
2022/09/01 02:59:15;;;;;;;3.67;1.60;;;;;;;18.41;46.64;101985.38;4933595;28;122993;-78
2022/09/01 03:01:46;;;;;;;2.67;1.83;;;;;;;18.38;46.57;101985.56;4937740;28;123472;-77
2022/09/01 03:04:13;;;;;;;6.78;2.33;;;;;;;18.36;46.50;101979.44;4945723;28;114283;-77
2022/09/01 03:06:41;;;;;;;4.57;1.80;;;;;;;18.33;46.70;101979.63;4935093;28;114221;-79
2022/09/01 03:09:13;;;;;;;5.57;1.70;;;;;;;18.29;46.79;101980.78;4923233;28;124454;-78
2022/09/01 03:11:43;;;;;;;3.35;1.70;;;;;;;18.25;46.65;101973.84;4934610;28;123094;-76
2022/09/01 03:14:11;;;;;;;3.35;1.73;;;;;;;18.21;46.76;101977.66;4949846;28;113441;-77
2022/09/01 03:16:39;;;;;;;3.17;1.70;;;;;;;18.18;46.88;101978.72;4949962;28;112774;-78
2022/09/01 03:19:07;;;;;;;2.90;1.60;;;;;;;18.15;46.94;101983.41;4937212;28;123582;-79
2022/09/01 03:21:39;;;;;;;5.38;1.92;;;;;;;18.13;47.06;101979.94;4916561;28;123024;-78
2022/09/01 03:24:09;;;;;;;3.95;1.70;;;;;;;18.11;47.00;101987.22;4949787;28;114541;-76
2022/09/01 03:26:36;;;;;;;2.33;1.50;;;;;;;18.11;47.03;101987.22;4936208;28;114239;-77
2022/09/01 03:29:04;;;;;;;2.75;1.50;;;;;;;18.08;46.94;101982.88;4938939;28;123417;-78
2022/09/01 03:31:31;;;;;;;2.72;1.60;;;;;;;18.04;47.25;101982.19;4949317;28;122998;-78
2022/09/01 03:34:02;;;;;;;4.85;1.60;;;;;;;17.99;47.07;101984.28;4954463;28;113825;-78
2022/09/01 03:36:32;;;;;;;3.60;1.65;;;;;;;17.95;47.04;101982.75;4947772;28;112369;-78
2022/09/01 03:39:00;;;;;;;4.13;1.85;;;;;;;17.91;47.21;101981.19;4949060;28;123867;-77
2022/09/01 03:41:30;;;;;;;4.95;1.70;;;;;;;17.88;47.36;101978.69;4949293;28;123265;-76
2022/09/01 03:43:58;;;;;;;3.38;1.60;;;;;;;17.87;47.21;101979.63;4937613;28;115533;-77
2022/09/01 03:46:30;;;;;;;3.50;1.70;;;;;;;17.85;47.41;101978.84;4934012;28;114503;-77
2022/09/01 03:49:06;;;;;;;4.15;1.48;;;;;;;17.81;47.31;101979.97;4933101;28;123938;-80
2022/09/01 03:51:37;;;;;;;3.28;1.45;;;;;;;17.78;47.31;101980.13;4930864;28;123280;-78
2022/09/01 03:54:06;;;;;;;2.10;1.63;;;;;;;17.75;47.36;101980.31;4933881;28;113411;-78
2022/09/01 03:56:34;;;;;;;3.78;2.05;;;;;;;17.73;47.54;101984.91;4947872;28;113061;-77
2022/09/01 03:59:01;;;;;;;3.83;1.70;;;;;;;17.71;47.46;101979.63;4918824;28;124482;-79
2022/09/01 04:01:36;;;;;;;3.78;1.80;;;;;;;17.70;47.40;101977.88;4949681;28;123336;-75
2022/09/01 04:04:05;;;;;;;6.10;1.85;;;;;;;17.67;47.62;101983.44;4923622;28;112524;-76
2022/09/01 04:06:32;;;;;;;4.50;1.77;;;;;;;17.64;47.46;101984.47;4950550;28;115634;-78
2022/09/01 04:09:01;;;;;;;3.42;1.85;;;;;;;17.62;47.43;101970.28;4920285;28;124467;-80
2022/09/01 04:11:32;;;;;;;3.70;1.92;;;;;;;17.61;47.53;101978.41;4946863;28;127196;-78
2022/09/01 04:14:00;;;;;;;3.55;1.70;;;;;;;17.57;47.40;101977.72;4935594;28;112763;-78
2022/09/01 04:19:24;;;;;;;3.53;1.80;;;;;;;17.51;47.47;101978.06;4934337;28;123785;-77
2022/09/01 04:21:59;;;;;;;1.95;1.50;;;;;;;17.48;47.91;101972.91;4915315;28;122607;-77
2022/09/01 04:24:32;;;;;;;1.92;1.40;;;;;;;17.48;47.31;101972.91;4933518;28;114432;-79
2022/09/01 04:27:01;;;;;;;3.65;1.42;;;;;;;17.46;47.48;101969.41;4933169;28;113713;-77
2022/09/01 04:29:30;;;;;;;2.15;1.48;;;;;;;17.45;47.43;101967.69;4934819;28;124773;-78
2022/09/01 04:32:06;;;;;;;2.50;1.63;;;;;;;17.43;47.24;101975.81;4934884;28;124359;-79
2022/09/01 04:34:38;;;;;;;4.25;1.70;;;;;;;17.40;47.43;101975.97;4933896;28;114085;-79
2022/09/01 04:37:13;;;;;;;2.28;1.75;;;;;;;17.39;47.39;101976.09;4919124;28;115099;-78
2022/09/01 04:39:48;;;;;;;3.63;1.80;;;;;;;17.37;47.47;101980.66;4944522;28;123504;-78
2022/09/01 04:42:23;;;;;;;2.40;1.83;;;;;;;17.35;47.56;101982.53;4925277;28;123251;-76
2022/09/01 04:44:52;;;;;;;2.58;1.80;;;;;;;17.34;47.48;101981.69;4947525;28;113000;-79
2022/09/01 04:47:28;;;;;;;7.00;2.20;;;;;;;17.32;47.47;101979.09;4936427;28;113374;-78
2022/09/01 04:50:11;;;;;;;3.55;1.85;;;;;;;17.31;47.41;101980.06;4948652;28;123984;-75
2022/09/01 04:52:43;;;;;;;5.20;2.10;;;;;;;17.31;47.45;101971.16;4957671;28;124133;-76
2022/09/01 04:55:18;;;;;;;3.50;1.63;;;;;;;17.29;47.38;101973.91;4970935;28;113588;-77
2022/09/01 04:57:48;;;;;;;3.33;2.00;;;;;;;17.28;47.49;101977.53;4962056;28;112673;-78
2022/09/01 05:00:21;;;;;;;1.67;1.40;;;;;;;17.27;47.46;101978.50;4936644;28;123798;-80
2022/09/01 05:02:52;;;;;;;5.22;1.50;;;;;;;17.26;47.41;101974.06;4946264;28;123573;-78
2022/09/01 05:05:21;;;;;;;3.30;1.40;;;;;;;17.26;47.52;101978.56;4934243;28;113557;-79
2022/09/01 05:07:51;;;;;;;2.08;1.50;;;;;;;17.25;47.24;101977.72;4948506;28;113313;-79
2022/09/01 05:10:22;;;;;;;1.98;1.52;;;;;;;17.25;47.47;101983.06;4932478;28;122709;-81
2022/09/01 05:13:11;;;;;;;3.65;1.40;;;;;;;17.26;47.51;101979.44;4948811;28;125397;-80
2022/09/01 05:15:45;;;;;;;2.72;1.30;;;;;;;17.26;47.22;101971.41;4938979;28;113930;-79
2022/09/01 05:18:22;;;;;;;5.57;1.77;;;;;;;17.27;47.46;101975.81;4945627;28;113965;-80
2022/09/01 05:20:51;;;;;;;5.43;1.52;;;;;;;17.28;47.54;101982.88;4934436;28;123651;-78
2022/09/01 05:23:19;;;;;;;4.95;1.52;;;;;;;17.29;47.58;101979.28;4935541;28;123019;-80
2022/09/01 05:25:50;;;;;;;1.73;1.30;;;;;;;17.30;47.50;101986.34;4937855;28;114823;-79
2022/09/01 05:28:18;;;;;;;2.50;1.30;;;;;;;17.32;47.55;101987.13;4948130;28;113620;-80
2022/09/01 05:30:47;;;;;;;3.17;1.58;;;;;;;17.35;47.49;101987.91;4934562;28;122134;-80
2022/09/01 05:33:17;;;;;;;2.88;1.42;;;;;;;17.37;47.46;101988.69;4952074;28;123117;-80
2022/09/01 05:35:55;;;;;;;3.10;1.43;;;;;;;17.40;47.52;101991.19;4918875;28;113435;-78
2022/09/01 05:38:24;;;;;;;3.22;1.67;;;;;;;17.42;47.57;101989.28;4944541;28;113788;-81
2022/09/01 05:41:02;;;;;;;2.42;1.30;;;;;;;17.44;47.42;101992.75;4924662;28;123845;-83
2022/09/01 05:43:32;;;;;;;5.35;1.55;;;;;;;17.47;47.27;101992.59;4948227;28;123080;-81
2022/09/01 05:46:03;;;;;;;3.03;1.60;;;;;;;17.49;47.44;101993.34;4949502;28;114223;-77
2022/09/01 05:48:38;;;;;;;2.85;1.70;;;;;;;17.51;47.50;101999.50;4932450;28;113308;-76
2022/09/01 05:51:09;;;;;;;4.88;1.60;;;;;;;17.55;47.49;101995.69;4933507;28;123543;-79
2022/09/01 05:53:57;;;;;;;5.72;1.83;;;;;;;17.59;47.44;101997.25;4922884;28;121818;-78
2022/09/01 05:56:29;;;;;;;3.90;1.58;;;;;;;17.63;47.49;101993.47;4916483;28;114230;-77
2022/09/01 05:59:01;;;;;;;3.85;1.30;;;;;;;17.68;47.41;102002.09;4931806;28;113596;-77
2022/09/01 06:01:48;;;;;;;3.88;1.55;;;;;;;17.77;47.57;101999.84;4939226;28;124878;-79
2022/09/01 06:04:16;;;;;;;4.32;1.85;;;;;;;17.85;47.50;102002.97;4964127;28;123042;-77
2022/09/01 06:06:48;;;;;;;4.45;1.58;;;;;;;17.95;47.67;102003.31;4932644;28;114009;-78
2022/09/01 06:09:40;;;;;;;2.13;1.40;;;;;;;18.06;47.52;102007.13;4934859;28;113104;-77
2022/09/01 06:12:16;;;;;;;3.08;1.65;;;;;;;18.16;47.42;102004.75;4937117;28;123225;-78
2022/09/01 06:14:46;;;;;;;4.38;1.50;;;;;;;18.28;47.45;102013.91;4944885;28;124297;-78
2022/09/01 06:17:18;;;;;;;5.10;1.30;;;;;;;18.39;47.31;102014.13;4932683;28;114502;-77
2022/09/01 06:19:45;;;;;;;3.70;1.35;;;;;;;18.52;47.32;102013.41;4948164;28;114456;-79
2022/09/01 06:22:12;;;;;;;2.50;1.20;;;;;;;18.65;47.20;102014.41;4946932;28;123667;-78
2022/09/01 06:24:40;;;;;;;2.72;1.35;;;;;;;18.78;46.86;102015.38;4931482;28;121968;-77
2022/09/01 06:27:11;;;;;;;2.55;1.20;;;;;;;18.88;46.49;102009.47;4919590;28;113505;-80
2022/09/01 06:29:38;;;;;;;2.15;1.40;;;;;;;19.01;46.79;102015.81;4952159;28;113776;-78
2022/09/01 06:32:09;;;;;;;3.38;1.27;;;;;;;19.15;46.72;102012.25;4949917;28;123323;-77
2022/09/01 06:34:43;;;;;;;3.55;1.30;;;;;;;19.29;46.34;102014.06;4949688;28;124331;-79
2022/09/01 06:37:12;;;;;;;2.17;1.23;;;;;;;19.43;46.36;102011.38;4954041;28;113462;-77
2022/09/01 06:39:42;;;;;;;4.38;1.00;;;;;;;19.55;45.91;102010.59;4954026;28;113370;-78
2022/09/01 06:42:12;;;;;;;4.20;1.25;;;;;;;19.70;45.89;102018.63;4952989;28;123912;-78
2022/09/01 06:44:47;;;;;;;3.03;1.30;;;;;;;19.84;45.70;102015.94;4954673;28;123231;-79
2022/09/01 06:47:14;;;;;;;3.40;1.30;;;;;;;19.97;45.56;102016.84;4954691;28;113845;-76
2022/09/01 06:49:41;;;;;;;3.80;1.38;;;;;;;20.10;45.31;102016.03;4956377;28;112936;-77
2022/09/01 06:52:14;;;;;;;1.88;1.25;;;;;;;20.20;45.15;102017.16;4959407;28;124422;-76
2022/09/01 06:54:42;;;;;;;2.22;1.38;;;;;;;20.31;44.45;102017.28;4956252;28;123337;-77
2022/09/01 06:57:10;;;;;;;3.33;1.83;;;;;;;20.39;44.41;102017.63;4955699;28;112608;-77
2022/09/01 06:59:58;;;;;;;2.45;1.15;;;;;;;20.48;44.29;102020.66;4941495;28;112528;-78
2022/09/01 07:02:25;;;;;;;2.45;1.55;;;;;;;20.55;44.26;102020.13;4953781;28;125377;-77
2022/09/01 07:05:22;;;;;;;2.47;1.40;;;;;;;20.62;44.04;102015.22;4971623;28;123120;-77
2022/09/01 07:08:16;;;;;;;1.75;1.15;;;;;;;20.68;43.93;102017.50;4932159;28;114856;-77
2022/09/01 07:11:16;;;;;;;2.22;1.02;;;;;;;20.74;43.56;102022.47;4956071;28;114087;-80
2022/09/01 07:14:06;;;;;;;3.47;1.50;;;;;;;20.80;43.66;102027.41;4952323;28;123777;-79
2022/09/01 07:16:42;;;;;;;2.15;1.30;;;;;;;20.88;43.62;102026.00;4954008;28;122570;-79
2022/09/01 07:19:19;;;;;;;4.13;1.33;;;;;;;20.96;43.45;102026.34;4953457;28;113983;-79
2022/09/01 07:21:56;;;;;;;3.85;1.63;;;;;;;21.03;42.83;102026.78;4953891;28;113552;-80
2022/09/01 07:24:47;;;;;;;3.35;1.30;;;;;;;21.08;43.06;102030.88;4930110;28;124049;-77
2022/09/01 07:27:49;;;;;;;2.42;1.45;;;;;;;21.13;43.23;102034.06;4954186;28;125516;-76
2022/09/01 07:30:21;;;;;;;5.50;1.40;;;;;;;21.22;43.02;102031.72;4953874;28;115310;-77
2022/09/01 07:32:51;;;;;;;2.78;1.38;;;;;;;21.29;42.81;102027.63;4952384;28;114016;-79
2022/09/01 07:35:21;;;;;;;2.25;1.40;;;;;;;21.35;42.60;102027.16;4952672;28;125380;-77
2022/09/01 07:37:49;;;;;;;2.42;1.50;;;;;;;21.43;42.61;102034.69;4945485;28;123644;-77
2022/09/01 07:40:40;;;;;;;3.80;1.30;;;;;;;21.52;42.50;102025.97;4949696;28;113757;-78
2022/09/01 07:43:51;;;;;;;2.05;1.30;;;;;;;21.61;42.46;102022.63;4951722;28;113946;-77
2022/09/01 07:46:37;;;;;;;3.10;1.27;;;;;;;21.74;42.65;102028.84;4950191;28;125289;-77
2022/09/01 07:49:10;;;;;;;3.83;1.20;;;;;;;21.92;42.46;102037.38;4931122;28;123636;-79
2022/09/01 07:51:58;;;;;;;3.70;1.30;;;;;;;22.07;42.46;102023.72;4945505;28;113553;-78
2022/09/01 07:54:26;;;;;;;4.05;1.10;;;;;;;22.22;41.99;102022.56;4942416;28;113227;-78
2022/09/01 07:56:54;;;;;;;3.75;1.40;;;;;;;22.33;42.04;102019.94;4932046;28;124368;-75
2022/09/01 07:59:22;;;;;;;5.13;1.50;;;;;;;22.48;42.04;102028.72;4950548;28;123499;-78
2022/09/01 08:01:56;;;;;;;5.00;1.30;;;;;;;22.65;41.79;102019.31;4949493;28;114494;-78
2022/09/01 08:04:25;;;;;;;2.58;1.00;;;;;;;22.82;41.68;102018.00;4951041;28;114182;-77
2022/09/01 08:06:53;;;;;;;1.40;0.90;;;;;;;22.98;41.27;102025.78;4940197;28;125149;-77
2022/09/01 08:09:20;;;;;;;1.95;1.25;;;;;;;23.12;41.04;102014.75;4949512;28;127220;-77
2022/09/01 08:12:05;;;;;;;2.35;1.17;;;;;;;23.29;40.88;102015.25;4950151;28;114452;-76
2022/09/01 08:14:38;;;;;;;2.17;1.00;;;;;;;23.43;40.50;102019.53;4951080;28;114298;-77
2022/09/01 08:17:06;;;;;;;2.88;0.90;;;;;;;23.56;40.24;102013.97;4950762;28;123946;-80
2022/09/01 08:19:55;;;;;;;4.03;0.90;;;;;;;23.72;39.72;102017.16;4927793;28;124154;-77
2022/09/01 08:22:42;;;;;;;6.15;1.13;;;;;;;23.85;39.72;102014.34;4953129;28;113045;-77
2022/09/01 08:25:24;;;;;;;2.22;1.25;;;;;;;24.02;39.96;102021.03;4937504;28;113178;-77
2022/09/01 08:27:53;;;;;;;2.08;1.00;;;;;;;24.20;39.76;102024.88;4950572;28;124166;-77
2022/09/01 08:30:31;;;;;;;3.42;1.00;;;;;;;24.37;39.29;102019.91;4950763;28;122873;-77
2022/09/01 08:33:01;;;;;;;4.75;0.90;;;;;;;24.50;38.75;102023.28;4952132;28;114234;-77
2022/09/01 08:35:44;;;;;;;2.47;1.00;;;;;;;24.64;38.52;102023.00;4936212;28;114081;-76
2022/09/01 08:38:11;;;;;;;1.83;0.82;;;;;;;24.78;38.46;102023.63;4942092;28;123993;-77
2022/09/01 08:40:41;;;;;;;1.55;0.95;;;;;;;24.91;37.88;102013.44;4949734;28;124143;-77
2022/09/01 08:43:24;;;;;;;1.88;0.90;;;;;;;25.01;37.45;102025.19;4953072;28;114006;-77
2022/09/01 08:45:56;;;;;;;1.73;0.80;;;;;;;25.08;37.04;102020.09;4950440;28;114974;-77
2022/09/01 08:48:38;;;;;;;2.22;1.00;;;;;;;25.13;36.96;102022.38;4948244;28;124051;-77
2022/09/01 08:51:36;;;;;;;3.20;1.10;;;;;;;25.19;36.54;102021.88;4923350;28;123008;-77
2022/09/01 08:54:22;;;;;;;1.48;0.95;;;;;;;25.29;36.59;102025.50;4934168;28;114638;-76
2022/09/01 08:57:32;;;;;;;2.63;0.90;;;;;;;25.39;36.72;102020.97;4951592;28;114683;-76
2022/09/01 09:00:24;;;;;;;2.15;0.77;;;;;;;25.54;36.48;102015.16;4896847;28;125104;-76
2022/09/01 09:03:12;;;;;;;2.20;0.98;;;;;;;25.63;35.80;102008.91;4950410;28;123287;-77
2022/09/01 09:06:17;;;;;;;2.13;1.00;;;;;;;25.72;35.66;102018.91;4948894;28;114318;-76
2022/09/01 09:08:53;;;;;;;3.33;0.90;;;;;;;25.77;35.48;102016.66;4952015;28;114911;-77
2022/09/01 09:12:09;;;;;;;3.45;0.90;;;;;;;25.88;35.34;102012.06;4948878;28;123752;-77
2022/09/01 09:14:51;;;;;;;3.80;1.02;;;;;;;25.95;35.55;102008.69;4940652;28;124063;-77
2022/09/01 09:17:22;;;;;;;2.13;1.17;;;;;;;26.06;35.34;102015.84;4948033;28;113982;-76
2022/09/01 09:19:49;;;;;;;1.92;1.17;;;;;;;26.15;35.43;102014.16;4961484;28;114952;-76
2022/09/01 09:22:18;;;;;;;3.13;1.02;;;;;;;26.26;34.91;102005.84;4942760;28;123893;-76
2022/09/01 09:25:07;;;;;;;2.30;0.82;;;;;;;26.37;34.81;102004.81;4934527;28;126166;-76
2022/09/01 09:27:38;;;;;;;2.45;0.90;;;;;;;26.46;34.48;102003.97;4947555;28;114073;-75
2022/09/01 09:30:25;;;;;;;3.42;1.23;;;;;;;26.57;34.20;101998.34;4944067;28;113242;-76
2022/09/01 09:33:02;;;;;;;1.60;0.90;;;;;;;26.60;33.76;101998.13;4935630;28;123611;-75
2022/09/01 09:35:49;;;;;;;4.93;1.08;;;;;;;26.61;33.63;101994.38;4931475;28;123348;-76
2022/09/01 09:38:32;;;;;;;1.90;0.70;;;;;;;26.60;33.54;101992.69;4947462;28;114141;-76
2022/09/01 09:41:01;;;;;;;2.40;0.85;;;;;;;26.64;33.25;101986.97;4945907;28;112867;-76
2022/09/01 09:44:02;;;;;;;3.10;1.00;;;;;;;26.67;33.05;101989.38;4934769;28;124319;-77
2022/09/01 09:46:41;;;;;;;6.20;1.00;;;;;;;26.71;32.77;101988.94;4932164;28;123777;-76
2022/09/01 09:49:25;;;;;;;2.58;1.17;;;;;;;26.75;32.81;101978.63;4945797;28;114937;-77
2022/09/01 09:52:08;;;;;;;3.97;1.10;;;;;;;26.78;32.20;101981.03;4947126;28;114369;-77
2022/09/01 09:54:38;;;;;;;3.80;0.98;;;;;;;26.84;32.39;101971.44;4947348;28;123984;-77
2022/09/01 09:57:08;;;;;;;1.42;0.90;;;;;;;26.87;31.74;101961.13;4961044;28;123436;-77
2022/09/01 09:59:43;;;;;;;1.40;0.93;;;;;;;26.88;31.42;101962.84;4949671;28;114380;-76
2022/09/01 10:02:31;;;;;;;1.65;0.90;;;;;;;26.88;30.83;101965.56;4937624;28;113616;-77
2022/09/01 10:05:01;;;;;;;1.25;0.70;;;;;;;26.91;31.20;101967.97;4945530;28;124529;-77
2022/09/01 10:07:32;;;;;;;1.60;1.00;;;;;;;26.95;30.93;101958.50;4948611;28;123912;-77
2022/09/01 10:10:05;;;;;;;1.17;0.82;;;;;;;27.09;31.01;101964.47;4947817;28;113441;-77
2022/09/01 10:12:33;;;;;;;3.45;1.00;;;;;;;27.21;30.66;101956.97;4921136;28;113375;-77
2022/09/01 10:15:07;;;;;;;3.85;0.80;;;;;;;27.30;30.83;101951.50;4949164;28;124061;-77
2022/09/01 10:17:42;;;;;;;2.88;1.00;;;;;;;27.40;30.47;101956.03;4920433;28;123240;-76
2022/09/01 10:20:19;;;;;;;2.05;0.70;;;;;;;27.48;29.99;101959.72;4949864;28;113819;-76
2022/09/01 10:22:48;;;;;;;2.42;0.90;;;;;;;27.55;29.68;101954.50;4937163;28;113870;-77
2022/09/01 10:25:25;;;;;;;1.45;0.82;;;;;;;27.56;29.66;101950.78;4932178;28;123748;-81
2022/09/01 10:28:06;;;;;;;1.70;0.90;;;;;;;27.57;29.22;101947.03;4929836;28;125076;-79
2022/09/01 10:30:41;;;;;;;3.25;0.80;;;;;;;27.63;29.61;101951.84;4939149;28;112178;-79
2022/09/01 10:33:09;;;;;;;2.22;0.80;;;;;;;27.72;29.27;101950.06;4933490;28;114336;-78
2022/09/01 10:35:49;;;;;;;1.45;0.80;;;;;;;27.76;29.05;101941.47;4948817;28;124814;-79
2022/09/01 10:38:21;;;;;;;1.58;0.82;;;;;;;27.86;29.22;101940.50;4946451;28;121978;-79
2022/09/01 10:41:05;;;;;;;2.95;0.80;;;;;;;27.95;29.23;101935.03;4948810;28;114424;-79
2022/09/01 10:43:48;;;;;;;1.33;0.93;;;;;;;28.09;28.81;101936.31;4937450;28;113353;-79
2022/09/01 10:46:18;;;;;;;1.35;0.70;;;;;;;28.14;28.57;101939.44;4949476;28;124823;-79
2022/09/01 10:48:54;;;;;;;1.52;0.65;;;;;;;28.21;28.73;101933.34;4932675;28;122865;-79
2022/09/01 10:51:28;;;;;;;1.35;0.82;;;;;;;28.30;28.29;101929.66;4948508;28;111728;-80
2022/09/01 10:54:05;;;;;;;1.45;0.80;;;;;;;28.37;28.00;101928.03;4949373;28;113801;-80
2022/09/01 10:56:48;;;;;;;2.15;0.70;;;;;;;28.42;28.26;101919.34;4949573;28;123733;-79
2022/09/01 10:59:21;;;;;;;1.63;0.73;;;;;;;28.45;27.55;101914.44;4946234;28;123883;-79
2022/09/01 11:02:17;;;;;;;1.05;0.60;;;;;;;28.44;27.21;101923.63;4935922;28;114987;-80
2022/09/01 11:04:54;;;;;;;3.03;0.80;;;;;;;28.45;27.20;101919.03;4932815;28;112093;-79
2022/09/01 11:07:22;;;;;;;1.50;0.80;;;;;;;28.42;26.83;101928.38;4948411;28;124665;-80
2022/09/01 11:10:27;;;;;;;1.05;0.60;;;;;;;28.32;26.62;101924.91;4946051;28;123952;-79
2022/09/01 11:13:28;;;;;;;2.40;0.80;;;;;;;28.27;26.68;101927.25;4948192;28;113578;-79
2022/09/01 11:16:26;;;;;;;2.70;0.70;;;;;;;28.28;26.98;101928.97;4933764;28;112977;-79
2022/09/01 11:19:38;;;;;;;1.13;0.70;;;;;;;28.30;26.58;101926.94;4932994;28;122595;-78
2022/09/01 11:22:25;;;;;;;1.77;0.90;;;;;;;28.26;26.01;101931.84;4945101;28;123920;-79
2022/09/01 11:25:32;;;;;;;2.03;0.77;;;;;;;28.28;26.80;101918.09;4949514;28;114161;-79
2022/09/01 11:28:22;;;;;;;4.38;0.70;;;;;;;28.37;26.66;101919.84;4933485;28;113586;-80
2022/09/01 11:31:07;;;;;;;1.77;0.80;;;;;;;28.42;26.83;101914.75;4942309;28;123826;-80
2022/09/01 11:34:01;;;;;;;1.13;0.77;;;;;;;28.48;26.59;101914.13;4946624;28;124276;-80
2022/09/01 11:36:30;;;;;;;4.15;0.80;;;;;;;28.52;26.40;101915.53;4947326;28;115173;-80
2022/09/01 11:39:07;;;;;;;1.95;0.70;;;;;;;28.52;25.89;101910.09;4941962;28;113743;-83
2022/09/01 11:41:40;;;;;;;2.10;0.70;;;;;;;28.53;25.77;101906.34;4949886;28;123582;-81
2022/09/01 11:44:35;;;;;;;3.00;0.70;;;;;;;28.57;25.79;101906.03;4948954;28;125469;-81
2022/09/01 11:47:28;;;;;;;1.73;0.80;;;;;;;28.61;26.58;101896.50;4936519;28;115134;-80
2022/09/01 11:50:01;;;;;;;2.13;0.80;;;;;;;28.69;26.34;101889.22;4938183;28;114064;-81
2022/09/01 11:52:33;;;;;;;5.72;1.20;;;;;;;28.73;25.84;101895.22;4930235;28;123948;-79
2022/09/01 11:55:02;;;;;;;1.90;0.70;;;;;;;28.79;26.04;101894.56;4945265;28;123652;-81
2022/09/01 11:57:39;;;;;;;1.33;0.70;;;;;;;28.87;25.78;101894.56;4944385;28;114603;-81
2022/09/01 12:00:09;;;;;;;1.65;0.60;;;;;;;28.93;25.82;101891.22;4948519;28;113874;-79
2022/09/01 12:02:47;;;;;;;1.63;0.90;;;;;;;28.96;25.02;101894.63;4947912;28;123178;-80